Kremlin, Montana
Current Conditions -  °F | °C
As of 9:53 AM on Friday 31 Oct 2014 (Local Time) from KHVR Reporting Station
Clear Clear  
Wind Chill: 29°   Ceiling: Unl
Heat Index: 35°   Visibility: 9mi
Dew Point: 31°   Wind: 7mph
Humidity: 85%   Direction: 60°ENE
Pressure: 29.84"   Gusts: NA
Location:  48.57°N, 110.09°W
Report Text: KHVR 311553Z AUTO 06006KT 9SM CLR 02/M01 A2984 RMK AO2 SLP124 T00171006 $
Loading
Personal Weather Stations






























Interactive Weather Map
Tropical Storm Tracking
New forecast layout! Learn more

10-Day Weather Forecast

Advertisements
Track Severe Weather on mobile